sensor_id;sensor_type;location;lat;lon;timestamp;pressure;altitude;pressure_sealevel;temperature;humidity
21086;BME280;34247;50.064;19.970;2023-07-02T00:01:30;98251.13;;;22.11;100.00
21086;BME280;34247;50.064;19.970;2023-07-02T00:03:10;98252.16;;;22.10;100.00
21086;BME280;34247;50.064;19.970;2023-07-02T00:04:46;98251.34;;;22.10;100.00
21086;BME280;34247;50.064;19.970;2023-07-02T00:06:20;98251.53;;;22.08;100.00
21086;BME280;34247;50.064;19.970;2023-07-02T00:07:54;98263.53;;;22.06;100.00
21086;BME280;34247;50.064;19.970;2023-07-02T00:09:30;98251.47;;;22.01;100.00
21086;BME280;34247;50.064;19.970;2023-07-02T00:11:04;98255.41;;;21.99;100.00
21086;BME280;34247;50.064;19.970;2023-07-02T00:12:40;98259.16;;;21.98;100.00
21086;BME280;34247;50.064;19.970;2023-07-02T00:14:15;98250.44;;;21.96;100.00
21086;BME280;34247;50.064;19.970;2023-07-02T00:15:49;98251.66;;;21.93;100.00
21086;BME280;34247;50.064;19.970;2023-07-02T00:17:22;98258.28;;;21.91;100.00
21086;BME280;34247;50.064;19.970;2023-07-02T00:18:55;98250.63;;;21.88;100.00
21086;BME280;34247;50.064;19.970;2023-07-02T00:20:33;98253.31;;;21.88;100.00
21086;BME280;34247;50.064;19.970;2023-07-02T00:22:08;98263.25;;;21.87;100.00
21086;BME280;34247;50.064;19.970;2023-07-02T00:23:42;98257.84;;;21.87;100.00
21086;BME280;34247;50.064;19.970;2023-07-02T00:25:15;98254.53;;;21.85;100.00
21086;BME280;34247;50.064;19.970;2023-07-02T00:26:48;98252.88;;;21.84;100.00
21086;BME280;34247;50.064;19.970;2023-07-02T00:28:22;98249.53;;;21.82;100.00
21086;BME280;34247;50.064;19.970;2023-07-02T00:29:59;98249.53;;;21.82;100.00
21086;BME280;34247;50.064;19.970;2023-07-02T00:31:32;98246.22;;;21.80;100.00
21086;BME280;34247;50.064;19.970;2023-07-02T00:33:06;98258.84;;;21.80;100.00
21086;BME280;34247;50.064;19.970;2023-07-02T00:34:40;98249.50;;;21.75;100.00
21086;BME280;34247;50.064;19.970;2023-07-02T00:36:14;98258.44;;;21.76;100.00
21086;BME280;34247;50.064;19.970;2023-07-02T00:37:49;98253.25;;;21.74;100.00
21086;BME280;34247;50.064;19.970;2023-07-02T00:39:22;98250.94;;;21.71;100.00
21086;BME280;34247;50.064;19.970;2023-07-02T00:40:56;98249.91;;;21.72;100.00
21086;BME280;34247;50.064;19.970;2023-07-02T00:42:30;98246.56;;;21.70;100.00
21086;BME280;34247;50.064;19.970;2023-07-02T00:44:04;98248.44;;;21.70;100.00
21086;BME280;34247;50.064;19.970;2023-07-02T00:45:39;98240.34;;;21.70;100.00
21086;BME280;34247;50.064;19.970;2023-07-02T00:47:13;98244.91;;;21.69;100.00
21086;BME280;34247;50.064;19.970;2023-07-02T00:48:49;98241.16;;;21.70;100.00
21086;BME280;34247;50.064;19.970;2023-07-02T00:50:27;98241.16;;;21.70;100.00
21086;BME280;34247;50.064;19.970;2023-07-02T00:52:02;98244.91;;;21.69;100.00
21086;BME280;34247;50.064;19.970;2023-07-02T00:53:37;98242.41;;;21.68;100.00
21086;BME280;34247;50.064;19.970;2023-07-02T00:55:10;98246.56;;;21.70;100.00
21086;BME280;34247;50.064;19.970;2023-07-02T00:56:43;98241.16;;;21.70;100.00
21086;BME280;34247;50.064;19.970;2023-07-02T00:58:16;98236.59;;;21.71;100.00
21086;BME280;34247;50.064;19.970;2023-07-02T00:59:50;98233.06;;;21.70;100.00
21086;BME280;34247;50.064;19.970;2023-07-02T01:01:25;98240.13;;;21.71;100.00
21086;BME280;34247;50.064;19.970;2023-07-02T01:02:59;98241.38;;;21.69;100.00
21086;BME280;34247;50.064;19.970;2023-07-02T01:04:32;98237.22;;;21.66;100.00
21086;BME280;34247;50.064;19.970;2023-07-02T01:06:05;98240.94;;;21.65;100.00
21086;BME280;34247;50.064;19.970;2023-07-02T01:07:38;98237.59;;;21.63;100.00
21086;BME280;34247;50.064;19.970;2023-07-02T01:09:11;98236.16;;;21.61;100.00
21086;BME280;34247;50.064;19.970;2023-07-02T01:10:45;98238.84;;;21.61;100.00
21086;BME280;34247;50.064;19.970;2023-07-02T01:12:19;98238.00;;;21.60;100.00
21086;BME280;34247;50.064;19.970;2023-07-02T01:14:00;98236.34;;;21.59;100.00
21086;BME280;34247;50.064;19.970;2023-07-02T01:15:37;98236.53;;;21.58;100.00
21086;BME280;34247;50.064;19.970;2023-07-02T01:17:13;98242.13;;;21.56;100.00
21086;BME280;34247;50.064;19.970;2023-07-02T01:18:49;98235.50;;;21.52;100.00
21086;BME280;34247;50.064;19.970;2023-07-02T01:20:25;98229.84;;;21.47;100.00
21086;BME280;34247;50.064;19.970;2023-07-02T01:22:02;98244.38;;;21.46;100.00
21086;BME280;34247;50.064;19.970;2023-07-02T01:23:36;98241.88;;;21.44;100.00
21086;BME280;34247;50.064;19.970;2023-07-02T01:25:10;98237.50;;;21.43;100.00
21086;BME280;34247;50.064;19.970;2023-07-02T01:26:44;98236.88;;;21.41;100.00
21086;BME280;34247;50.064;19.970;2023-07-02T01:28:18;98243.09;;;21.42;100.00
21086;BME280;34247;50.064;19.970;2023-07-02T01:29:52;98237.91;;;21.40;100.00
21086;BME280;34247;50.064;19.970;2023-07-02T01:31:26;98235.41;;;21.39;100.00
21086;BME280;34247;50.064;19.970;2023-07-02T01:32:59;98238.94;;;21.39;100.00
21086;BME280;34247;50.064;19.970;2023-07-02T01:34:33;98249.94;;;21.38;100.00
21086;BME280;34247;50.064;19.970;2023-07-02T01:36:07;98232.91;;;21.37;100.00
21086;BME280;34247;50.064;19.970;2023-07-02T01:37:40;98234.13;;;21.35;100.00
21086;BME280;34247;50.064;19.970;2023-07-02T01:39:14;98239.72;;;21.33;100.00
21086;BME280;34247;50.064;19.970;2023-07-02T01:40:48;98235.16;;;21.34;100.00
21086;BME280;34247;50.064;19.970;2023-07-02T01:42:22;98235.16;;;21.34;100.00
21086;BME280;34247;50.064;19.970;2023-07-02T01:43:56;98231.06;;;21.38;100.00
21086;BME280;34247;50.064;19.970;2023-07-02T01:45:29;98227.09;;;21.40;100.00
21086;BME280;34247;50.064;19.970;2023-07-02T01:47:04;98230.63;;;21.41;100.00
21086;BME280;34247;50.064;19.970;2023-07-02T01:48:38;98225.88;;;21.43;100.00
21086;BME280;34247;50.064;19.970;2023-07-02T01:50:12;98230.25;;;21.44;100.00
21086;BME280;34247;50.064;19.970;2023-07-02T01:51:50;98231.91;;;21.45;100.00
21086;BME280;34247;50.064;19.970;2023-07-02T01:53:26;98221.13;;;21.45;100.00
21086;BME280;34247;50.064;19.970;2023-07-02T01:55:04;98227.34;;;21.45;100.00
21086;BME280;34247;50.064;19.970;2023-07-02T01:56:38;98222.16;;;21.44;100.00
21086;BME280;34247;50.064;19.970;2023-07-02T01:58:13;98224.88;;;21.44;100.00
21086;BME280;34247;50.064;19.970;2023-07-02T01:59:47;98227.56;;;21.44;100.00
21086;BME280;34247;50.064;19.970;2023-07-02T02:04:48;98208.63;;;21.37;100.00
21086;BME280;34247;50.064;19.970;2023-07-02T02:06:22;98226.06;;;21.41;100.00
21086;BME280;34247;50.064;19.970;2023-07-02T02:07:56;98222.53;;;21.41;100.00
21086;BME280;34247;50.064;19.970;2023-07-02T02:09:35;98231.91;;;21.45;100.00
21086;BME280;34247;50.064;19.970;2023-07-02T02:11:12;98230.88;;;21.46;100.00
21086;BME280;34247;50.064;19.970;2023-07-02T02:12:46;98226.09;;;21.48;100.00
21086;BME280;34247;50.064;19.970;2023-07-02T02:14:20;98223.41;;;21.48;100.00
21086;BME280;34247;50.064;19.970;2023-07-02T02:15:54;98219.03;;;21.47;100.00
21086;BME280;34247;50.064;19.970;2023-07-02T02:17:28;98216.97;;;21.49;100.00
21086;BME280;34247;50.064;19.970;2023-07-02T02:19:08;98229.25;;;21.52;100.00
21086;BME280;34247;50.064;19.970;2023-07-02T02:20:42;98226.56;;;21.52;100.00
21086;BME280;34247;50.064;19.970;2023-07-02T02:22:16;98224.28;;;21.55;100.00
21086;BME280;34247;50.064;19.970;2023-07-02T02:23:50;98218.66;;;21.57;100.00
21086;BME280;34247;50.064;19.970;2023-07-02T02:25:26;98222.84;;;21.59;100.00
21086;BME280;34247;50.064;19.970;2023-07-02T02:27:00;98220.78;;;21.61;100.00
21086;BME280;34247;50.064;19.970;2023-07-02T02:28:35;98226.19;;;21.61;100.00
21086;BME280;34247;50.064;19.970;2023-07-02T02:30:08;98213.50;;;21.62;100.00
21086;BME280;34247;50.064;19.970;2023-07-02T02:31:46;98218.69;;;21.63;100.00
21086;BME280;34247;50.064;19.970;2023-07-02T02:33:21;98214.97;;;21.64;100.00
21086;BME280;34247;50.064;19.970;2023-07-02T02:34:54;98221.19;;;21.65;100.00
21086;BME280;34247;50.064;19.970;2023-07-02T02:36:27;98218.69;;;21.63;100.00
21086;BME280;34247;50.064;19.970;2023-07-02T02:38:04;98214.97;;;21.64;100.00
21086;BME280;34247;50.064;19.970;2023-07-02T02:39:37;98219.75;;;21.62;100.00
21086;BME280;34247;50.064;19.970;2023-07-02T02:41:11;98217.03;;;21.62;100.00
21086;BME280;34247;50.064;19.970;2023-07-02T02:42:45;98214.56;;;21.61;100.00
21086;BME280;34247;50.064;19.970;2023-07-02T02:44:19;98212.22;;;21.58;100.00
21086;BME280;34247;50.064;19.970;2023-07-02T02:45:52;98214.09;;;21.57;100.00
21086;BME280;34247;50.064;19.970;2023-07-02T02:47:25;98223.03;;;21.58;100.00
21086;BME280;34247;50.064;19.970;2023-07-02T02:48:59;98222.19;;;21.57;100.00
21086;BME280;34247;50.064;19.970;2023-07-02T02:50:33;98225.09;;;21.56;100.00
21086;BME280;34247;50.064;19.970;2023-07-02T02:52:09;98217.00;;;21.56;100.00
21086;BME280;34247;50.064;19.970;2023-07-02T02:53:43;98225.94;;;21.56;100.00
21086;BME280;34247;50.064;19.970;2023-07-02T02:55:17;98230.50;;;21.56;100.00
21086;BME280;34247;50.064;19.970;2023-07-02T02:56:50;98226.16;;;21.55;100.00
21086;BME280;34247;50.064;19.970;2023-07-02T02:58:24;98227.19;;;21.54;100.00
21086;BME280;34247;50.064;19.970;2023-07-02T02:59:57;98222.00;;;21.52;100.00
21086;BME280;34247;50.064;19.970;2023-07-02T03:01:30;98219.47;;;21.51;100.00
21086;BME280;34247;50.064;19.970;2023-07-02T03:03:04;98219.66;;;21.49;100.00
21086;BME280;34247;50.064;19.970;2023-07-02T03:04:40;98220.72;;;21.48;100.00
21086;BME280;34247;50.064;19.970;2023-07-02T03:06:14;98221.75;;;21.47;100.00
21086;BME280;34247;50.064;19.970;2023-07-02T03:07:50;98214.28;;;21.49;100.00
21086;BME280;34247;50.064;19.970;2023-07-02T03:09:23;98216.97;;;21.49;100.00
21086;BME280;34247;50.064;19.970;2023-07-02T03:10:57;98214.94;;;21.51;100.00
21086;BME280;34247;50.064;19.970;2023-07-02T03:12:30;98217.44;;;21.53;100.00
21086;BME280;34247;50.064;19.970;2023-07-02T03:14:03;98224.47;;;21.54;100.00
21086;BME280;34247;50.064;19.970;2023-07-02T03:15:40;98218.03;;;21.55;100.00
21086;BME280;34247;50.064;19.970;2023-07-02T03:17:14;98214.50;;;21.54;100.00
21086;BME280;34247;50.064;19.970;2023-07-02T03:18:48;98217.84;;;21.56;100.00
21086;BME280;34247;50.064;19.970;2023-07-02T03:20:24;98211.41;;;21.57;100.00
21086;BME280;34247;50.064;19.970;2023-07-02T03:21:58;98216.19;;;21.55;100.00
21086;BME280;34247;50.064;19.970;2023-07-02T03:23:32;98212.66;;;21.55;100.00
21086;BME280;34247;50.064;19.970;2023-07-02T03:25:06;98210.78;;;21.55;100.00
21086;BME280;34247;50.064;19.970;2023-07-02T03:26:42;98203.72;;;21.54;100.00
21086;BME280;34247;50.064;19.970;2023-07-02T03:28:16;98206.22;;;21.56;100.00
21086;BME280;34247;50.064;19.970;2023-07-02T03:29:52;98206.84;;;21.58;100.00
21086;BME280;34247;50.064;19.970;2023-07-02T03:31:26;98206.00;;;21.57;100.00
21086;BME280;34247;50.064;19.970;2023-07-02T03:33:00;98207.88;;;21.57;100.00
21086;BME280;34247;50.064;19.970;2023-07-02T03:34:33;98195.63;;;21.54;100.00
21086;BME280;34247;50.064;19.970;2023-07-02T03:36:11;98211.59;;;21.56;100.00
21086;BME280;34247;50.064;19.970;2023-07-02T03:37:45;98212.84;;;21.53;100.00
21086;BME280;34247;50.064;19.970;2023-07-02T03:39:18;98209.53;;;21.51;100.00
21086;BME280;34247;50.064;19.970;2023-07-02T03:40:52;98202.66;;;21.48;100.00
21086;BME280;34247;50.064;19.970;2023-07-02T03:42:26;98199.13;;;21.48;100.00
21086;BME280;34247;50.064;19.970;2023-07-02T03:44:01;98209.53;;;21.51;100.00
21086;BME280;34247;50.064;19.970;2023-07-02T03:45:35;98213.88;;;21.52;100.00
21086;BME280;34247;50.064;19.970;2023-07-02T03:47:09;98209.94;;;21.55;100.00
21086;BME280;34247;50.064;19.970;2023-07-02T03:48:43;98210.38;;;21.58;100.00
21086;BME280;34247;50.064;19.970;2023-07-02T03:50:16;98208.31;;;21.60;100.00
21086;BME280;34247;50.064;19.970;2023-07-02T03:51:49;98209.16;;;21.61;100.00
21086;BME280;34247;50.064;19.970;2023-07-02T03:53:23;98209.16;;;21.61;100.00
21086;BME280;34247;50.064;19.970;2023-07-02T03:54:57;98203.97;;;21.59;100.00
21086;BME280;34247;50.064;19.970;2023-07-02T17:06:38;98492.09;;;24.76;55.56
21086;BME280;34247;50.064;19.970;2023-07-02T17:11:57;98488.59;;;24.62;56.99
21086;BME280;34247;50.064;19.970;2023-07-02T17:16:29;98510.94;;;24.58;57.93
21086;BME280;34247;50.064;19.970;2023-07-02T17:18:33;98511.78;;;24.52;58.30
21086;BME280;34247;50.064;19.970;2023-07-02T17:20:08;98510.34;;;24.49;58.87
21086;BME280;34247;50.064;19.970;2023-07-02T17:21:49;98513.91;;;24.50;58.93
21086;BME280;34247;50.064;19.970;2023-07-02T17:24:05;98519.09;;;24.44;59.27
21086;BME280;34247;50.064;19.970;2023-07-02T17:25:41;98517.84;;;24.40;59.67
21086;BME280;34247;50.064;19.970;2023-07-02T17:27:25;98520.56;;;24.47;59.78
21086;BME280;34247;50.064;19.970;2023-07-02T17:28:58;98524.31;;;24.46;59.78
21086;BME280;34247;50.064;19.970;2023-07-02T17:30:32;98518.88;;;24.46;60.09
21086;BME280;34247;50.064;19.970;2023-07-02T17:32:09;98523.09;;;24.48;60.29
21086;BME280;34247;50.064;19.970;2023-07-02T17:33:42;98524.75;;;24.50;60.46
21086;BME280;34247;50.064;19.970;2023-07-02T17:35:16;98522.22;;;24.48;60.72
21086;BME280;34247;50.064;19.970;2023-07-02T17:36:55;98525.78;;;24.48;60.65
21086;BME280;34247;50.064;19.970;2023-07-02T17:38:29;98528.28;;;24.43;61.05
21086;BME280;34247;50.064;19.970;2023-07-02T17:40:02;98522.25;;;24.41;61.56
21086;BME280;34247;50.064;19.970;2023-07-02T17:41:36;98531.63;;;24.45;61.54
21086;BME280;34247;50.064;19.970;2023-07-02T17:43:09;98530.19;;;24.43;61.89
21086;BME280;34247;50.064;19.970;2023-07-02T17:44:44;98531.84;;;24.37;61.93
21086;BME280;34247;50.064;19.970;2023-07-02T17:46:18;98529.75;;;24.33;62.35
21086;BME280;34247;50.064;19.970;2023-07-02T17:47:51;98528.50;;;24.29;62.79
21086;BME280;34247;50.064;19.970;2023-07-02T17:49:28;98525.38;;;24.25;62.86
21086;BME280;34247;50.064;19.970;2023-07-02T17:51:01;98533.09;;;24.21;63.31
21086;BME280;34247;50.064;19.970;2023-07-02T17:52:34;98528.91;;;24.19;63.58
21086;BME280;34247;50.064;19.970;2023-07-02T17:54:08;98531.44;;;24.14;64.08
21086;BME280;34247;50.064;19.970;2023-07-02T17:55:49;98542.91;;;24.09;64.10
21086;BME280;34247;50.064;19.970;2023-07-02T17:57:43;98539.97;;;24.04;64.79
21086;BME280;34247;50.064;19.970;2023-07-02T17:59:20;98542.91;;;24.03;64.71
21086;BME280;34247;50.064;19.970;2023-07-02T18:01:29;98543.72;;;23.97;64.92
21086;BME280;34247;50.064;19.970;2023-07-02T18:03:04;98553.94;;;23.94;65.27
21086;BME280;34247;50.064;19.970;2023-07-02T18:04:38;98546.88;;;23.93;65.50
21086;BME280;34247;50.064;19.970;2023-07-02T18:06:12;98543.53;;;23.91;65.60
21086;BME280;34247;50.064;19.970;2023-07-02T18:07:45;98557.28;;;23.90;65.76
21086;BME280;34247;50.064;19.970;2023-07-02T18:09:19;98556.03;;;23.86;66.06
21086;BME280;34247;50.064;19.970;2023-07-02T18:10:52;98550.00;;;23.84;66.62
21086;BME280;34247;50.064;19.970;2023-07-02T18:12:25;98549.16;;;23.83;66.58
21086;BME280;34247;50.064;19.970;2023-07-02T18:13:58;98549.56;;;23.80;66.55
21086;BME280;34247;50.064;19.970;2023-07-02T18:15:31;98558.13;;;23.77;67.13
21086;BME280;34247;50.064;19.970;2023-07-02T18:17:05;98553.09;;;23.74;67.09
21086;BME280;34247;50.064;19.970;2023-07-02T18:18:38;98548.09;;;23.71;67.09
21086;BME280;34247;50.064;19.970;2023-07-02T18:20:11;98560.59;;;23.72;67.27
21086;BME280;34247;50.064;19.970;2023-07-02T18:21:44;98556.44;;;23.70;67.68
21086;BME280;34247;50.064;19.970;2023-07-02T18:23:18;98555.19;;;23.65;67.76
21086;BME280;34247;50.064;19.970;2023-07-02T18:24:51;98561.84;;;23.63;68.03
21086;BME280;34247;50.064;19.970;2023-07-02T18:26:24;98558.50;;;23.61;68.38
21086;BME280;34247;50.064;19.970;2023-07-02T18:28:10;98563.25;;;23.59;68.39
21086;BME280;34247;50.064;19.970;2023-07-02T18:29:47;98564.31;;;23.58;68.74
21086;BME280;34247;50.064;19.970;2023-07-02T18:31:20;98558.47;;;23.54;68.69
21086;BME280;34247;50.064;19.970;2023-07-02T18:32:53;98560.53;;;23.52;68.95
21086;BME280;34247;50.064;19.970;2023-07-02T18:34:27;98565.13;;;23.52;68.99
21086;BME280;34247;50.064;19.970;2023-07-02T18:36:00;98560.97;;;23.49;69.45
21086;BME280;34247;50.064;19.970;2023-07-02T18:37:35;98555.31;;;23.44;69.54
21086;BME280;34247;50.064;19.970;2023-07-02T18:39:08;98559.28;;;23.42;69.60
21086;BME280;34247;50.064;19.970;2023-07-02T18:40:42;98555.06;;;23.39;70.04
21086;BME280;34247;50.064;19.970;2023-07-02T18:42:15;98562.19;;;23.40;70.09
21086;BME280;34247;50.064;19.970;2023-07-02T18:43:48;98574.03;;;23.39;70.15
21086;BME280;34247;50.064;19.970;2023-07-02T18:45:21;98566.13;;;23.37;70.31
21086;BME280;34247;50.064;19.970;2023-07-02T18:46:54;98570.09;;;23.35;70.43
21086;BME280;34247;50.064;19.970;2023-07-02T18:48:27;98581.13;;;23.33;70.48
21086;BME280;34247;50.064;19.970;2023-07-02T18:50:00;98574.88;;;23.33;70.47
21086;BME280;34247;50.064;19.970;2023-07-02T18:51:33;98582.75;;;23.28;70.65
21086;BME280;34247;50.064;19.970;2023-07-02T18:53:06;98579.59;;;23.24;71.00
21086;BME280;34247;50.064;19.970;2023-07-02T18:54:40;98580.25;;;23.20;70.99
21086;BME280;34247;50.064;19.970;2023-07-02T18:56:13;98587.91;;;23.16;71.20
21086;BME280;34247;50.064;19.970;2023-07-02T18:57:46;98590.00;;;23.14;71.19
21086;BME280;34247;50.064;19.970;2023-07-02T18:59:19;98587.72;;;23.11;71.25
21086;BME280;34247;50.064;19.970;2023-07-02T19:00:53;98594.53;;;23.07;71.30
21086;BME280;34247;50.064;19.970;2023-07-02T19:02:27;98594.97;;;23.04;71.70
21086;BME280;34247;50.064;19.970;2023-07-02T19:04:00;98592.00;;;22.99;71.68
21086;BME280;34247;50.064;19.970;2023-07-02T19:05:33;98593.25;;;22.96;71.75
21086;BME280;34247;50.064;19.970;2023-07-02T19:07:06;98600.31;;;22.91;71.87
21086;BME280;34247;50.064;19.970;2023-07-02T19:08:40;98604.03;;;22.90;71.86
21086;BME280;34247;50.064;19.970;2023-07-02T19:10:14;98609.84;;;22.87;72.26
21086;BME280;34247;50.064;19.970;2023-07-02T19:11:47;98602.75;;;22.86;72.28
21086;BME280;34247;50.064;19.970;2023-07-02T19:13:20;98601.72;;;22.87;72.11
21086;BME280;34247;50.064;19.970;2023-07-02T19:14:54;98603.59;;;22.86;72.16
21086;BME280;34247;50.064;19.970;2023-07-02T19:16:29;98613.38;;;22.87;72.10
21086;BME280;34247;50.064;19.970;2023-07-02T19:18:04;98610.88;;;22.86;72.16
21086;BME280;34247;50.064;19.970;2023-07-02T19:19:39;98608.81;;;22.88;72.19
21086;BME280;34247;50.064;19.970;2023-07-02T19:21:13;98610.66;;;22.87;72.52
21086;BME280;34247;50.064;19.970;2023-07-02T19:22:46;98608.19;;;22.86;72.57
21086;BME280;34247;50.064;19.970;2023-07-02T19:24:19;98614.41;;;22.86;72.64
21086;BME280;34247;50.064;19.970;2023-07-02T19:25:59;98619.00;;;22.86;72.80
21086;BME280;34247;50.064;19.970;2023-07-02T19:27:45;98622.72;;;22.84;72.94
21086;BME280;34247;50.064;19.970;2023-07-02T19:29:30;98629.81;;;22.86;73.25
21086;BME280;34247;50.064;19.970;2023-07-02T19:31:06;98626.25;;;22.85;73.45
21086;BME280;34247;50.064;19.970;2023-07-02T19:32:44;98630.81;;;22.84;73.73
21086;BME280;34247;50.064;19.970;2023-07-02T19:34:20;98629.38;;;22.82;73.86
21086;BME280;34247;50.064;19.970;2023-07-02T19:35:53;98631.41;;;22.80;73.78
21086;BME280;34247;50.064;19.970;2023-07-02T19:37:26;98629.75;;;22.79;74.13
21086;BME280;34247;50.064;19.970;2023-07-02T19:41:45;98641.13;;;22.68;74.63
21086;BME280;34247;50.064;19.970;2023-07-02T19:43:18;98637.13;;;22.64;74.79
21086;BME280;34247;50.064;19.970;2023-07-02T19:44:57;98642.75;;;22.62;75.15
21086;BME280;34247;50.064;19.970;2023-07-02T19:46:30;98643.13;;;22.59;75.19
21086;BME280;34247;50.064;19.970;2023-07-02T19:48:04;98651.44;;;22.57;75.38
21086;BME280;34247;50.064;19.970;2023-07-02T19:49:38;98647.66;;;22.52;75.48
21086;BME280;34247;50.064;19.970;2023-07-02T19:51:11;98649.94;;;22.48;75.79
21086;BME280;34247;50.064;19.970;2023-07-02T19:52:44;98652.16;;;22.45;75.80
21086;BME280;34247;50.064;19.970;2023-07-02T19:54:18;98660.88;;;22.40;75.90
21086;BME280;34247;50.064;19.970;2023-07-02T19:55:51;98657.09;;;22.35;76.16
21086;BME280;34247;50.064;19.970;2023-07-02T19:57:24;98653.09;;;22.30;76.34
21086;BME280;34247;50.064;19.970;2023-07-02T19:58:57;98648.50;;;22.24;76.71
21086;BME280;34247;50.064;19.970;2023-07-02T20:00:30;98652.66;;;22.27;76.63
21086;BME280;34247;50.064;19.970;2023-07-02T20:02:03;98662.63;;;22.26;76.99
21086;BME280;34247;50.064;19.970;2023-07-02T20:03:37;98655.94;;;22.22;77.21
21086;BME280;34247;50.064;19.970;2023-07-02T20:05:10;98651.38;;;22.23;77.34
21086;BME280;34247;50.064;19.970;2023-07-02T20:06:44;98656.78;;;22.23;77.29
21086;BME280;34247;50.064;19.970;2023-07-02T20:08:17;98654.91;;;22.23;77.52
21086;BME280;34247;50.064;19.970;2023-07-02T20:09:50;98663.22;;;22.22;77.81
21086;BME280;34247;50.064;19.970;2023-07-02T20:11:23;98659.88;;;22.20;77.91
21086;BME280;34247;50.064;19.970;2023-07-02T20:12:57;98655.03;;;22.15;77.92
21086;BME280;34247;50.064;19.970;2023-07-02T20:14:30;98661.88;;;22.11;78.25
21086;BME280;34247;50.064;19.970;2023-07-02T20:16:03;98659.38;;;22.10;78.18
21086;BME280;34247;50.064;19.970;2023-07-02T20:17:36;98664.09;;;22.08;78.20
21086;BME280;34247;50.064;19.970;2023-07-02T20:19:09;98667.81;;;22.07;78.26
21086;BME280;34247;50.064;19.970;2023-07-02T20:20:42;98666.34;;;22.04;78.67
21086;BME280;34247;50.064;19.970;2023-07-02T20:22:17;98668.03;;;22.05;78.78
21086;BME280;34247;50.064;19.970;2023-07-02T20:23:50;98668.41;;;22.02;78.84
21086;BME280;34247;50.064;19.970;2023-07-02T20:25:23;98670.44;;;22.00;79.24
21086;BME280;34247;50.064;19.970;2023-07-02T20:26:59;98666.09;;;21.99;79.16
21086;BME280;34247;50.064;19.970;2023-07-02T20:28:32;98671.50;;;21.99;79.31
21086;BME280;34247;50.064;19.970;2023-07-02T20:30:07;98675.22;;;21.98;79.22
21086;BME280;34247;50.064;19.970;2023-07-02T20:31:40;98670.22;;;21.95;79.41
21086;BME280;34247;50.064;19.970;2023-07-02T20:33:13;98674.75;;;21.94;79.43
21086;BME280;34247;50.064;19.970;2023-07-02T20:34:47;98673.28;;;21.92;79.17
21086;BME280;34247;50.064;19.970;2023-07-02T20:36:20;98673.91;;;21.94;79.59
21086;BME280;34247;50.064;19.970;2023-07-02T20:37:54;98674.59;;;21.96;79.39
21086;BME280;34247;50.064;19.970;2023-07-02T20:39:27;98672.25;;;21.93;79.44
21086;BME280;34247;50.064;19.970;2023-07-02T20:41:01;98680.34;;;21.93;79.32
21086;BME280;34247;50.064;19.970;2023-07-02T20:42:34;98672.25;;;21.93;79.51
21086;BME280;34247;50.064;19.970;2023-07-02T20:44:07;98674.94;;;21.93;79.28
21086;BME280;34247;50.064;19.970;2023-07-02T20:45:41;98683.06;;;21.93;79.15
21086;BME280;34247;50.064;19.970;2023-07-02T20:47:15;98685.56;;;21.94;78.88
21086;BME280;34247;50.064;19.970;2023-07-02T20:48:48;98684.72;;;21.94;79.21
21086;BME280;34247;50.064;19.970;2023-07-02T20:50:21;98690.13;;;21.94;79.10
21086;BME280;34247;50.064;19.970;2023-07-02T20:51:54;98690.31;;;21.92;78.89
21086;BME280;34247;50.064;19.970;2023-07-02T20:53:27;98698.22;;;21.94;78.75
21086;BME280;34247;50.064;19.970;2023-07-02T20:55:00;98694.53;;;21.95;79.13
21086;BME280;34247;50.064;19.970;2023-07-02T20:56:33;98700.09;;;21.93;79.00
21086;BME280;34247;50.064;19.970;2023-07-02T20:58:06;98695.53;;;21.94;79.08
21086;BME280;34247;50.064;19.970;2023-07-02T20:59:39;98694.06;;;21.91;78.87
21086;BME280;34247;50.064;19.970;2023-07-02T21:01:12;98692.75;;;21.87;79.37
21086;BME280;34247;50.064;19.970;2023-07-02T21:02:45;98699.19;;;21.86;79.47
21086;BME280;34247;50.064;19.970;2023-07-02T21:04:18;98697.53;;;21.85;79.53
21086;BME280;34247;50.064;19.970;2023-07-02T21:05:51;98698.16;;;21.87;79.58
21086;BME280;34247;50.064;19.970;2023-07-02T21:07:25;98707.13;;;21.88;79.75
21086;BME280;34247;50.064;19.970;2023-07-02T21:08:58;98703.75;;;21.86;79.77
21086;BME280;34247;50.064;19.970;2023-07-02T21:10:31;98710.00;;;21.86;79.91
21086;BME280;34247;50.064;19.970;2023-07-02T21:12:05;98714.56;;;21.86;80.08
21086;BME280;34247;50.064;19.970;2023-07-02T21:13:38;98716.63;;;21.84;80.24
21086;BME280;34247;50.064;19.970;2023-07-02T21:15:11;98716.00;;;21.82;80.15
21086;BME280;34247;50.064;19.970;2023-07-02T21:16:44;98715.16;;;21.81;80.41
21086;BME280;34247;50.064;19.970;2023-07-02T21:18:17;98716.19;;;21.80;80.40
21086;BME280;34247;50.064;19.970;2023-07-02T21:19:50;98713.66;;;21.79;80.29
21086;BME280;34247;50.064;19.970;2023-07-02T21:21:23;98710.31;;;21.77;80.39
21086;BME280;34247;50.064;19.970;2023-07-02T21:22:56;98713.41;;;21.73;80.35
21086;BME280;34247;50.064;19.970;2023-07-02T21:24:29;98715.84;;;21.68;80.56
21086;BME280;34247;50.064;19.970;2023-07-02T21:26:02;98711.25;;;21.69;80.80
21086;BME280;34247;50.064;19.970;2023-07-02T21:27:35;98715.19;;;21.66;80.78
21086;BME280;34247;50.064;19.970;2023-07-02T21:29:09;98718.06;;;21.65;81.22
21086;BME280;34247;50.064;19.970;2023-07-02T21:30:46;98722.47;;;21.66;81.01
21086;BME280;34247;50.064;19.970;2023-07-02T21:32:19;98712.66;;;21.65;81.29
21086;BME280;34247;50.064;19.970;2023-07-02T21:33:52;98716.59;;;21.62;81.35
21086;BME280;34247;50.064;19.970;2023-07-02T21:35:25;98721.97;;;21.62;81.60